sensor_id;sensor_type;location;lat;lon;timestamp;P1;durP1;ratioP1;P2;durP2;ratioP2
60704;SDS011;46545;38.014;-7.874;2023-03-12T00:00:51;12.07;;;5.72;;
60704;SDS011;46545;38.014;-7.874;2023-03-12T00:02:51;14.05;;;6.20;;
60704;SDS011;46545;38.014;-7.874;2023-03-12T00:04:52;11.50;;;6.05;;
60704;SDS011;46545;38.014;-7.874;2023-03-12T00:06:52;11.93;;;6.07;;
60704;SDS011;46545;38.014;-7.874;2023-03-12T00:08:53;14.25;;;6.35;;
60704;SDS011;46545;38.014;-7.874;2023-03-12T00:10:53;8.35;;;5.30;;
60704;SDS011;46545;38.014;-7.874;2023-03-12T00:12:54;11.05;;;6.60;;
60704;SDS011;46545;38.014;-7.874;2023-03-12T00:14:54;9.93;;;5.43;;
60704;SDS011;46545;38.014;-7.874;2023-03-12T00:16:55;11.90;;;5.03;;
60704;SDS011;46545;38.014;-7.874;2023-03-12T00:18:55;11.43;;;5.32;;
60704;SDS011;46545;38.014;-7.874;2023-03-12T00:20:56;9.38;;;6.15;;
60704;SDS011;46545;38.014;-7.874;2023-03-12T00:22:56;12.35;;;6.25;;
60704;SDS011;46545;38.014;-7.874;2023-03-12T00:24:57;10.68;;;5.70;;
60704;SDS011;46545;38.014;-7.874;2023-03-12T00:26:57;7.97;;;4.90;;
60704;SDS011;46545;38.014;-7.874;2023-03-12T00:28:58;9.20;;;5.30;;
60704;SDS011;46545;38.014;-7.874;2023-03-12T00:30:58;7.95;;;5.07;;
60704;SDS011;46545;38.014;-7.874;2023-03-12T00:32:59;10.65;;;5.00;;
60704;SDS011;46545;38.014;-7.874;2023-03-12T00:34:59;20.13;;;7.78;;
60704;SDS011;46545;38.014;-7.874;2023-03-12T00:37:00;22.98;;;8.02;;
60704;SDS011;46545;38.014;-7.874;2023-03-12T00:39:00;19.17;;;7.38;;
60704;SDS011;46545;38.014;-7.874;2023-03-12T00:41:01;9.20;;;4.72;;
60704;SDS011;46545;38.014;-7.874;2023-03-12T00:43:01;9.70;;;6.25;;
60704;SDS011;46545;38.014;-7.874;2023-03-12T00:45:01;12.80;;;6.72;;
60704;SDS011;46545;38.014;-7.874;2023-03-12T00:47:02;9.20;;;5.03;;
60704;SDS011;46545;38.014;-7.874;2023-03-12T00:49:03;13.70;;;5.60;;
60704;SDS011;46545;38.014;-7.874;2023-03-12T00:51:03;9.15;;;4.35;;
60704;SDS011;46545;38.014;-7.874;2023-03-12T00:53:04;10.48;;;3.97;;
60704;SDS011;46545;38.014;-7.874;2023-03-12T00:55:04;9.73;;;5.95;;
60704;SDS011;46545;38.014;-7.874;2023-03-12T00:57:05;17.42;;;6.55;;
60704;SDS011;46545;38.014;-7.874;2023-03-12T00:59:08;10.53;;;6.00;;
60704;SDS011;46545;38.014;-7.874;2023-03-12T01:01:08;7.75;;;4.55;;
60704;SDS011;46545;38.014;-7.874;2023-03-12T01:03:09;10.20;;;4.82;;
60704;SDS011;46545;38.014;-7.874;2023-03-12T01:05:10;10.82;;;4.45;;
60704;SDS011;46545;38.014;-7.874;2023-03-12T01:07:11;6.40;;;4.05;;
60704;SDS011;46545;38.014;-7.874;2023-03-12T01:09:12;5.95;;;3.85;;
60704;SDS011;46545;38.014;-7.874;2023-03-12T01:11:13;6.47;;;3.75;;
60704;SDS011;46545;38.014;-7.874;2023-03-12T01:13:13;9.20;;;4.50;;
60704;SDS011;46545;38.014;-7.874;2023-03-12T01:15:15;5.18;;;3.30;;
60704;SDS011;46545;38.014;-7.874;2023-03-12T01:17:16;10.70;;;4.68;;
60704;SDS011;46545;38.014;-7.874;2023-03-12T01:19:16;11.27;;;5.32;;
60704;SDS011;46545;38.014;-7.874;2023-03-12T01:21:17;15.25;;;5.78;;
60704;SDS011;46545;38.014;-7.874;2023-03-12T01:23:17;15.63;;;6.75;;
60704;SDS011;46545;38.014;-7.874;2023-03-12T01:25:18;14.98;;;6.63;;
60704;SDS011;46545;38.014;-7.874;2023-03-12T01:27:18;25.98;;;9.82;;
60704;SDS011;46545;38.014;-7.874;2023-03-12T01:29:19;15.27;;;6.40;;
60704;SDS011;46545;38.014;-7.874;2023-03-12T01:31:20;18.27;;;8.55;;
60704;SDS011;46545;38.014;-7.874;2023-03-12T01:33:21;14.98;;;7.97;;
60704;SDS011;46545;38.014;-7.874;2023-03-12T01:35:24;43.83;;;16.33;;
60704;SDS011;46545;38.014;-7.874;2023-03-12T01:37:25;68.45;;;21.40;;
60704;SDS011;46545;38.014;-7.874;2023-03-12T01:39:26;62.90;;;20.88;;
60704;SDS011;46545;38.014;-7.874;2023-03-12T01:41:27;59.95;;;21.63;;
60704;SDS011;46545;38.014;-7.874;2023-03-12T01:43:29;50.53;;;17.05;;
60704;SDS011;46545;38.014;-7.874;2023-03-12T01:47:50;42.80;;;16.60;;
60704;SDS011;46545;38.014;-7.874;2023-03-12T01:49:51;47.35;;;16.02;;
60704;SDS011;46545;38.014;-7.874;2023-03-12T01:52:05;54.75;;;16.80;;
60704;SDS011;46545;38.014;-7.874;2023-03-12T01:54:37;43.72;;;16.58;;
60704;SDS011;46545;38.014;-7.874;2023-03-12T01:56:38;49.63;;;16.25;;
60704;SDS011;46545;38.014;-7.874;2023-03-12T01:58:41;51.17;;;17.00;;
60704;SDS011;46545;38.014;-7.874;2023-03-12T02:00:43;52.15;;;19.05;;
60704;SDS011;46545;38.014;-7.874;2023-03-12T02:02:43;53.33;;;19.23;;
60704;SDS011;46545;38.014;-7.874;2023-03-12T02:04:48;66.57;;;20.92;;
60704;SDS011;46545;38.014;-7.874;2023-03-12T02:06:52;59.90;;;19.73;;
60704;SDS011;46545;38.014;-7.874;2023-03-12T02:08:54;53.22;;;17.30;;
60704;SDS011;46545;38.014;-7.874;2023-03-12T02:10:54;63.17;;;20.40;;
60704;SDS011;46545;38.014;-7.874;2023-03-12T02:12:55;62.13;;;18.55;;
60704;SDS011;46545;38.014;-7.874;2023-03-12T02:14:56;70.07;;;22.15;;
60704;SDS011;46545;38.014;-7.874;2023-03-12T02:16:57;84.57;;;28.30;;
60704;SDS011;46545;38.014;-7.874;2023-03-12T02:18:58;102.30;;;29.15;;
60704;SDS011;46545;38.014;-7.874;2023-03-12T02:21:16;96.38;;;30.33;;
60704;SDS011;46545;38.014;-7.874;2023-03-12T02:27:37;153.88;;;44.40;;
60704;SDS011;46545;38.014;-7.874;2023-03-12T02:29:40;171.05;;;49.40;;
60704;SDS011;46545;38.014;-7.874;2023-03-12T02:31:43;145.98;;;42.67;;
60704;SDS011;46545;38.014;-7.874;2023-03-12T02:33:45;183.15;;;49.67;;
60704;SDS011;46545;38.014;-7.874;2023-03-12T02:35:46;160.50;;;48.13;;
60704;SDS011;46545;38.014;-7.874;2023-03-12T02:37:48;174.07;;;49.55;;
60704;SDS011;46545;38.014;-7.874;2023-03-12T02:39:51;176.25;;;53.50;;
60704;SDS011;46545;38.014;-7.874;2023-03-12T02:41:54;187.25;;;54.83;;
60704;SDS011;46545;38.014;-7.874;2023-03-12T02:44:10;192.38;;;50.85;;
60704;SDS011;46545;38.014;-7.874;2023-03-12T02:46:12;186.18;;;54.63;;
60704;SDS011;46545;38.014;-7.874;2023-03-12T02:48:13;199.25;;;53.65;;
60704;SDS011;46545;38.014;-7.874;2023-03-12T02:50:13;200.65;;;53.83;;
60704;SDS011;46545;38.014;-7.874;2023-03-12T02:52:14;152.82;;;44.30;;
60704;SDS011;46545;38.014;-7.874;2023-03-12T02:54:15;174.50;;;49.15;;
60704;SDS011;46545;38.014;-7.874;2023-03-12T02:56:16;195.15;;;50.88;;
60704;SDS011;46545;38.014;-7.874;2023-03-12T02:58:17;194.32;;;50.58;;
60704;SDS011;46545;38.014;-7.874;2023-03-12T03:00:17;197.52;;;53.25;;
60704;SDS011;46545;38.014;-7.874;2023-03-12T03:02:22;157.15;;;47.67;;
60704;SDS011;46545;38.014;-7.874;2023-03-12T03:04:23;179.85;;;49.42;;
60704;SDS011;46545;38.014;-7.874;2023-03-12T03:06:24;167.20;;;45.42;;
60704;SDS011;46545;38.014;-7.874;2023-03-12T03:08:25;167.52;;;48.35;;
60704;SDS011;46545;38.014;-7.874;2023-03-12T03:10:26;164.32;;;43.85;;
60704;SDS011;46545;38.014;-7.874;2023-03-12T03:12:26;168.15;;;46.38;;
60704;SDS011;46545;38.014;-7.874;2023-03-12T03:14:27;191.30;;;51.90;;
60704;SDS011;46545;38.014;-7.874;2023-03-12T03:16:28;191.57;;;48.22;;
60704;SDS011;46545;38.014;-7.874;2023-03-12T03:18:29;151.00;;;40.78;;
60704;SDS011;46545;38.014;-7.874;2023-03-12T03:20:30;148.25;;;39.45;;
60704;SDS011;46545;38.014;-7.874;2023-03-12T03:22:30;140.98;;;37.95;;
60704;SDS011;46545;38.014;-7.874;2023-03-12T03:24:31;140.40;;;40.55;;
60704;SDS011;46545;38.014;-7.874;2023-03-12T03:26:31;162.75;;;43.60;;
60704;SDS011;46545;38.014;-7.874;2023-03-12T03:28:32;159.52;;;44.38;;
60704;SDS011;46545;38.014;-7.874;2023-03-12T03:30:32;134.40;;;38.38;;
60704;SDS011;46545;38.014;-7.874;2023-03-12T03:32:33;124.65;;;32.75;;
60704;SDS011;46545;38.014;-7.874;2023-03-12T03:34:34;96.30;;;27.52;;
60704;SDS011;46545;38.014;-7.874;2023-03-12T03:36:34;123.72;;;31.90;;
60704;SDS011;46545;38.014;-7.874;2023-03-12T03:38:42;94.18;;;25.85;;
60704;SDS011;46545;38.014;-7.874;2023-03-12T03:40:48;82.15;;;22.00;;
60704;SDS011;46545;38.014;-7.874;2023-03-12T03:42:49;91.95;;;25.63;;
60704;SDS011;46545;38.014;-7.874;2023-03-12T03:44:49;98.65;;;26.15;;
60704;SDS011;46545;38.014;-7.874;2023-03-12T03:46:50;87.13;;;23.80;;
60704;SDS011;46545;38.014;-7.874;2023-03-12T03:48:50;77.53;;;20.70;;
60704;SDS011;46545;38.014;-7.874;2023-03-12T03:50:51;94.13;;;26.35;;
60704;SDS011;46545;38.014;-7.874;2023-03-12T03:52:52;109.20;;;27.20;;
60704;SDS011;46545;38.014;-7.874;2023-03-12T03:54:52;101.50;;;26.95;;
60704;SDS011;46545;38.014;-7.874;2023-03-12T03:56:53;102.88;;;25.17;;
60704;SDS011;46545;38.014;-7.874;2023-03-12T03:58:55;104.30;;;25.80;;
60704;SDS011;46545;38.014;-7.874;2023-03-12T04:00:56;117.28;;;28.80;;
60704;SDS011;46545;38.014;-7.874;2023-03-12T04:02:56;102.65;;;26.70;;
60704;SDS011;46545;38.014;-7.874;2023-03-12T04:04:57;105.78;;;27.90;;
60704;SDS011;46545;38.014;-7.874;2023-03-12T04:06:59;107.72;;;25.70;;
60704;SDS011;46545;38.014;-7.874;2023-03-12T04:08:59;84.50;;;25.55;;
60704;SDS011;46545;38.014;-7.874;2023-03-12T04:11:05;81.75;;;23.02;;
60704;SDS011;46545;38.014;-7.874;2023-03-12T04:13:06;84.45;;;22.73;;
60704;SDS011;46545;38.014;-7.874;2023-03-12T04:15:07;81.85;;;24.00;;
60704;SDS011;46545;38.014;-7.874;2023-03-12T04:17:08;92.55;;;27.55;;
60704;SDS011;46545;38.014;-7.874;2023-03-12T04:19:09;112.88;;;26.48;;
60704;SDS011;46545;38.014;-7.874;2023-03-12T04:21:10;114.50;;;28.73;;
60704;SDS011;46545;38.014;-7.874;2023-03-12T04:23:11;113.90;;;29.15;;
60704;SDS011;46545;38.014;-7.874;2023-03-12T04:25:12;110.32;;;30.00;;
60704;SDS011;46545;38.014;-7.874;2023-03-12T04:27:12;103.20;;;27.52;;
60704;SDS011;46545;38.014;-7.874;2023-03-12T04:29:13;124.28;;;33.20;;
60704;SDS011;46545;38.014;-7.874;2023-03-12T04:31:15;123.50;;;32.63;;
60704;SDS011;46545;38.014;-7.874;2023-03-12T04:33:22;119.05;;;31.88;;
60704;SDS011;46545;38.014;-7.874;2023-03-12T04:35:22;129.98;;;33.60;;
60704;SDS011;46545;38.014;-7.874;2023-03-12T04:37:24;115.72;;;29.65;;
60704;SDS011;46545;38.014;-7.874;2023-03-12T04:39:25;70.78;;;21.60;;
60704;SDS011;46545;38.014;-7.874;2023-03-12T04:41:26;66.28;;;17.48;;
60704;SDS011;46545;38.014;-7.874;2023-03-12T04:43:47;50.08;;;16.05;;
60704;SDS011;46545;38.014;-7.874;2023-03-12T04:45:48;46.60;;;13.00;;
60704;SDS011;46545;38.014;-7.874;2023-03-12T04:47:49;46.58;;;13.90;;
60704;SDS011;46545;38.014;-7.874;2023-03-12T04:49:50;42.70;;;13.80;;
60704;SDS011;46545;38.014;-7.874;2023-03-12T04:51:51;40.20;;;12.30;;
60704;SDS011;46545;38.014;-7.874;2023-03-12T04:53:53;29.25;;;6.80;;
60704;SDS011;46545;38.014;-7.874;2023-03-12T04:55:54;31.45;;;7.00;;
60704;SDS011;46545;38.014;-7.874;2023-03-12T04:57:55;66.60;;;6.95;;
60704;SDS011;46545;38.014;-7.874;2023-03-12T04:59:57;51.60;;;5.93;;
60704;SDS011;46545;38.014;-7.874;2023-03-12T05:01:58;50.88;;;4.95;;
60704;SDS011;46545;38.014;-7.874;2023-03-12T05:04:02;84.97;;;5.30;;
60704;SDS011;46545;38.014;-7.874;2023-03-12T05:06:02;39.78;;;5.47;;
60704;SDS011;46545;38.014;-7.874;2023-03-12T05:08:04;24.45;;;4.40;;
60704;SDS011;46545;38.014;-7.874;2023-03-12T05:10:06;31.00;;;4.00;;
60704;SDS011;46545;38.014;-7.874;2023-03-12T05:12:07;21.30;;;3.20;;
60704;SDS011;46545;38.014;-7.874;2023-03-12T05:14:08;41.17;;;4.70;;
60704;SDS011;46545;38.014;-7.874;2023-03-12T05:16:10;41.80;;;5.13;;
60704;SDS011;46545;38.014;-7.874;2023-03-12T05:18:10;10.88;;;3.35;;
60704;SDS011;46545;38.014;-7.874;2023-03-12T05:20:11;78.47;;;5.88;;
60704;SDS011;46545;38.014;-7.874;2023-03-12T05:22:12;59.22;;;6.35;;
60704;SDS011;46545;38.014;-7.874;2023-03-12T05:24:12;52.85;;;5.68;;
60704;SDS011;46545;38.014;-7.874;2023-03-12T05:26:23;59.22;;;6.13;;
60704;SDS011;46545;38.014;-7.874;2023-03-12T05:28:28;21.05;;;4.18;;
60704;SDS011;46545;38.014;-7.874;2023-03-12T05:30:31;34.08;;;4.88;;
60704;SDS011;46545;38.014;-7.874;2023-03-12T05:32:32;33.42;;;4.43;;
60704;SDS011;46545;38.014;-7.874;2023-03-12T05:34:33;72.55;;;6.32;;
60704;SDS011;46545;38.014;-7.874;2023-03-12T05:36:34;28.20;;;4.07;;
60704;SDS011;46545;38.014;-7.874;2023-03-12T05:38:34;28.23;;;3.97;;
60704;SDS011;46545;38.014;-7.874;2023-03-12T05:40:35;14.25;;;4.13;;
60704;SDS011;46545;38.014;-7.874;2023-03-12T05:42:36;29.65;;;4.20;;
60704;SDS011;46545;38.014;-7.874;2023-03-12T05:44:37;37.47;;;4.85;;
60704;SDS011;46545;38.014;-7.874;2023-03-12T05:46:37;22.27;;;4.15;;
60704;SDS011;46545;38.014;-7.874;2023-03-12T05:48:38;18.75;;;4.72;;
60704;SDS011;46545;38.014;-7.874;2023-03-12T05:50:38;44.22;;;5.65;;
60704;SDS011;46545;38.014;-7.874;2023-03-12T05:52:40;30.77;;;5.03;;
60704;SDS011;46545;38.014;-7.874;2023-03-12T05:54:40;39.08;;;5.10;;
60704;SDS011;46545;38.014;-7.874;2023-03-12T05:56:41;22.77;;;5.82;;
60704;SDS011;46545;38.014;-7.874;2023-03-12T05:58:42;34.55;;;5.35;;
60704;SDS011;46545;38.014;-7.874;2023-03-12T06:00:43;46.70;;;5.93;;
60704;SDS011;46545;38.014;-7.874;2023-03-12T06:02:45;38.80;;;6.18;;
60704;SDS011;46545;38.014;-7.874;2023-03-12T06:04:46;34.42;;;5.90;;
60704;SDS011;46545;38.014;-7.874;2023-03-12T06:06:47;33.60;;;5.72;;
60704;SDS011;46545;38.014;-7.874;2023-03-12T06:08:47;33.08;;;6.43;;
60704;SDS011;46545;38.014;-7.874;2023-03-12T06:10:51;29.63;;;6.85;;
60704;SDS011;46545;38.014;-7.874;2023-03-12T06:12:54;36.88;;;6.07;;
60704;SDS011;46545;38.014;-7.874;2023-03-12T06:14:56;20.92;;;6.00;;
60704;SDS011;46545;38.014;-7.874;2023-03-12T06:16:56;32.13;;;6.95;;
60704;SDS011;46545;38.014;-7.874;2023-03-12T06:18:58;31.73;;;5.55;;
60704;SDS011;46545;38.014;-7.874;2023-03-12T06:21:13;39.72;;;6.50;;
60704;SDS011;46545;38.014;-7.874;2023-03-12T06:23:14;20.02;;;6.43;;
60704;SDS011;46545;38.014;-7.874;2023-03-12T06:25:15;35.47;;;7.55;;
60704;SDS011;46545;38.014;-7.874;2023-03-12T06:27:16;27.92;;;7.38;;
60704;SDS011;46545;38.014;-7.874;2023-03-12T06:29:17;37.15;;;6.95;;
60704;SDS011;46545;38.014;-7.874;2023-03-12T06:31:18;38.25;;;7.18;;
60704;SDS011;46545;38.014;-7.874;2023-03-12T06:33:18;21.48;;;7.43;;
60704;SDS011;46545;38.014;-7.874;2023-03-12T06:35:19;14.35;;;6.78;;
60704;SDS011;46545;38.014;-7.874;2023-03-12T06:37:19;21.58;;;7.40;;
60704;SDS011;46545;38.014;-7.874;2023-03-12T06:39:20;15.02;;;7.88;;
60704;SDS011;46545;38.014;-7.874;2023-03-12T06:41:20;11.63;;;7.75;;
60704;SDS011;46545;38.014;-7.874;2023-03-12T06:43:21;14.80;;;7.50;;
60704;SDS011;46545;38.014;-7.874;2023-03-12T06:45:21;10.98;;;8.07;;
60704;SDS011;46545;38.014;-7.874;2023-03-12T06:47:22;12.20;;;7.90;;
60704;SDS011;46545;38.014;-7.874;2023-03-12T06:49:23;10.77;;;8.20;;
60704;SDS011;46545;38.014;-7.874;2023-03-12T06:51:23;12.00;;;7.38;;
60704;SDS011;46545;38.014;-7.874;2023-03-12T06:53:24;11.05;;;7.40;;
60704;SDS011;46545;38.014;-7.874;2023-03-12T06:55:25;10.32;;;7.03;;
60704;SDS011;46545;38.014;-7.874;2023-03-12T06:57:25;12.88;;;8.38;;
60704;SDS011;46545;38.014;-7.874;2023-03-12T06:59:26;11.15;;;8.23;;
60704;SDS011;46545;38.014;-7.874;2023-03-12T07:01:26;12.65;;;8.93;;
60704;SDS011;46545;38.014;-7.874;2023-03-12T07:03:26;12.32;;;9.00;;
60704;SDS011;46545;38.014;-7.874;2023-03-12T07:05:27;12.95;;;9.07;;
60704;SDS011;46545;38.014;-7.874;2023-03-12T07:07:28;14.82;;;10.13;;
60704;SDS011;46545;38.014;-7.874;2023-03-12T07:09:28;12.60;;;8.80;;
60704;SDS011;46545;38.014;-7.874;2023-03-12T07:11:28;14.15;;;9.43;;
60704;SDS011;46545;38.014;-7.874;2023-03-12T07:13:29;10.43;;;8.43;;
60704;SDS011;46545;38.014;-7.874;2023-03-12T07:15:29;14.98;;;9.55;;
60704;SDS011;46545;38.014;-7.874;2023-03-12T07:17:30;14.63;;;10.73;;
60704;SDS011;46545;38.014;-7.874;2023-03-12T07:19:30;11.63;;;8.48;;
60704;SDS011;46545;38.014;-7.874;2023-03-12T07:21:31;13.40;;;8.70;;
60704;SDS011;46545;38.014;-7.874;2023-03-12T07:23:31;12.73;;;9.02;;
60704;SDS011;46545;38.014;-7.874;2023-03-12T07:25:35;13.13;;;9.75;;
60704;SDS011;46545;38.014;-7.874;2023-03-12T07:27:36;12.18;;;9.07;;
60704;SDS011;46545;38.014;-7.874;2023-03-12T07:29:37;8.18;;;6.40;;
60704;SDS011;46545;38.014;-7.874;2023-03-12T07:31:37;6.95;;;5.35;;
60704;SDS011;46545;38.014;-7.874;2023-03-12T07:33:37;12.40;;;7.00;;
60704;SDS011;46545;38.014;-7.874;2023-03-12T07:35:38;7.15;;;5.47;;
60704;SDS011;46545;38.014;-7.874;2023-03-12T07:37:39;4.30;;;3.75;;
60704;SDS011;46545;38.014;-7.874;2023-03-12T07:39:39;4.32;;;3.28;;
60704;SDS011;46545;38.014;-7.874;2023-03-12T07:41:39;8.88;;;4.47;;
60704;SDS011;46545;38.014;-7.874;2023-03-12T07:43:43;5.85;;;4.25;;
60704;SDS011;46545;38.014;-7.874;2023-03-12T07:45:43;5.00;;;2.70;;
60704;SDS011;46545;38.014;-7.874;2023-03-12T07:47:44;4.05;;;2.10;;
60704;SDS011;46545;38.014;-7.874;2023-03-12T07:49:44;6.00;;;1.95;;
60704;SDS011;46545;38.014;-7.874;2023-03-12T07:51:45;2.58;;;1.98;;
60704;SDS011;46545;38.014;-7.874;2023-03-12T07:53:45;5.38;;;1.45;;
60704;SDS011;46545;38.014;-7.874;2023-03-12T07:55:46;3.67;;;1.70;;
60704;SDS011;46545;38.014;-7.874;2023-03-12T07:57:46;2.47;;;1.45;;
60704;SDS011;46545;38.014;-7.874;2023-03-12T07:59:47;3.33;;;1.63;;
60704;SDS011;46545;38.014;-7.874;2023-03-12T08:01:47;4.32;;;1.20;;
60704;SDS011;46545;38.014;-7.874;2023-03-12T08:03:47;2.60;;;1.55;;
60704;SDS011;46545;38.014;-7.874;2023-03-12T08:05:55;1.45;;;1.23;;
60704;SDS011;46545;38.014;-7.874;2023-03-12T08:07:55;3.83;;;1.30;;
60704;SDS011;46545;38.014;-7.874;2023-03-12T08:09:59;3.45;;;1.42;;
60704;SDS011;46545;38.014;-7.874;2023-03-12T08:12:00;1.92;;;1.25;;
60704;SDS011;46545;38.014;-7.874;2023-03-12T08:14:00;3.28;;;1.17;;
60704;SDS011;46545;38.014;-7.874;2023-03-12T08:16:01;3.45;;;1.38;;
60704;SDS011;46545;38.014;-7.874;2023-03-12T08:18:01;2.42;;;0.88;;
60704;SDS011;46545;38.014;-7.874;2023-03-12T08:20:04;3.88;;;1.45;;
60704;SDS011;46545;38.014;-7.874;2023-03-12T08:22:08;4.38;;;1.35;;
60704;SDS011;46545;38.014;-7.874;2023-03-12T08:24:09;2.83;;;1.10;;
60704;SDS011;46545;38.014;-7.874;2023-03-12T08:26:09;2.65;;;1.33;;
60704;SDS011;46545;38.014;-7.874;2023-03-12T08:28:09;2.90;;;1.27;;
60704;SDS011;46545;38.014;-7.874;2023-03-12T08:30:10;3.22;;;1.20;;
60704;SDS011;46545;38.014;-7.874;2023-03-12T08:32:11;2.03;;;1.30;;
60704;SDS011;46545;38.014;-7.874;2023-03-12T08:34:13;2.25;;;1.27;;
60704;SDS011;46545;38.014;-7.874;2023-03-12T08:36:13;1.83;;;1.20;;
60704;SDS011;46545;38.014;-7.874;2023-03-12T08:38:14;4.50;;;1.10;;
60704;SDS011;46545;38.014;-7.874;2023-03-12T08:40:14;3.65;;;1.30;;
60704;SDS011;46545;38.014;-7.874;2023-03-12T08:42:15;3.65;;;1.30;;
60704;SDS011;46545;38.014;-7.874;2023-03-12T08:44:15;4.43;;;1.23;;
60704;SDS011;46545;38.014;-7.874;2023-03-12T08:46:16;3.13;;;1.50;;
60704;SDS011;46545;38.014;-7.874;2023-03-12T08:48:16;1.67;;;1.48;;
60704;SDS011;46545;38.014;-7.874;2023-03-12T08:50:16;1.50;;;1.40;;
60704;SDS011;46545;38.014;-7.874;2023-03-12T08:52:17;3.28;;;1.40;;
60704;SDS011;46545;38.014;-7.874;2023-03-12T08:54:18;3.65;;;1.40;;
60704;SDS011;46545;38.014;-7.874;2023-03-12T08:56:18;1.88;;;1.40;;
60704;SDS011;46545;38.014;-7.874;2023-03-12T08:58:19;3.65;;;1.42;;
60704;SDS011;46545;38.014;-7.874;2023-03-12T09:00:20;3.20;;;1.50;;
60704;SDS011;46545;38.014;-7.874;2023-03-12T09:02:20;4.20;;;1.35;;
60704;SDS011;46545;38.014;-7.874;2023-03-12T09:04:21;5.10;;;1.35;;
60704;SDS011;46545;38.014;-7.874;2023-03-12T09:06:21;4.55;;;1.83;;
60704;SDS011;46545;38.014;-7.874;2023-03-12T09:08:21;2.53;;;1.13;;
60704;SDS011;46545;38.014;-7.874;2023-03-12T09:10:24;4.82;;;1.75;;
60704;SDS011;46545;38.014;-7.874;2023-03-12T09:12:24;3.87;;;1.63;;
60704;SDS011;46545;38.014;-7.874;2023-03-12T09:14:25;4.45;;;1.77;;
60704;SDS011;46545;38.014;-7.874;2023-03-12T09:16:25;6.28;;;1.48;;
60704;SDS011;46545;38.014;-7.874;2023-03-12T09:18:26;3.80;;;1.48;;
60704;SDS011;46545;38.014;-7.874;2023-03-12T09:20:27;2.92;;;1.42;;
60704;SDS011;46545;38.014;-7.874;2023-03-12T09:22:28;1.92;;;1.30;;
60704;SDS011;46545;38.014;-7.874;2023-03-12T09:24:28;4.95;;;1.50;;
60704;SDS011;46545;38.014;-7.874;2023-03-12T09:26:29;2.08;;;1.73;;
60704;SDS011;46545;38.014;-7.874;2023-03-12T09:28:29;3.55;;;2.00;;
60704;SDS011;46545;38.014;-7.874;2023-03-12T09:30:30;6.47;;;1.92;;
60704;SDS011;46545;38.014;-7.874;2023-03-12T09:32:31;3.90;;;1.83;;
60704;SDS011;46545;38.014;-7.874;2023-03-12T09:34:31;7.70;;;2.22;;
60704;SDS011;46545;38.014;-7.874;2023-03-12T09:36:32;3.40;;;1.67;;
60704;SDS011;46545;38.014;-7.874;2023-03-12T09:38:32;6.30;;;2.28;;
60704;SDS011;46545;38.014;-7.874;2023-03-12T09:40:35;4.22;;;1.88;;
60704;SDS011;46545;38.014;-7.874;2023-03-12T09:42:40;4.57;;;1.90;;
60704;SDS011;46545;38.014;-7.874;2023-03-12T09:44:42;4.53;;;1.75;;
60704;SDS011;46545;38.014;-7.874;2023-03-12T09:46:48;3.10;;;1.83;;
60704;SDS011;46545;38.014;-7.874;2023-03-12T09:48:49;2.90;;;1.50;;
60704;SDS011;46545;38.014;-7.874;2023-03-12T09:50:52;6.70;;;2.00;;
60704;SDS011;46545;38.014;-7.874;2023-03-12T09:53:02;4.63;;;1.77;;
60704;SDS011;46545;38.014;-7.874;2023-03-12T09:55:10;2.65;;;1.90;;
60704;SDS011;46545;38.014;-7.874;2023-03-12T09:57:16;7.60;;;1.80;;
60704;SDS011;46545;38.014;-7.874;2023-03-12T09:59:19;2.17;;;1.98;;
60704;SDS011;46545;38.014;-7.874;2023-03-12T10:04:06;2.88;;;2.22;;
60704;SDS011;46545;38.014;-7.874;2023-03-12T10:06:13;6.78;;;2.28;;
60704;SDS011;46545;38.014;-7.874;2023-03-12T10:13:07;6.10;;;2.35;;
60704;SDS011;46545;38.014;-7.874;2023-03-12T10:15:13;2.80;;;1.77;;
60704;SDS011;46545;38.014;-7.874;2023-03-12T10:22:00;1.27;;;1.17;;
60704;SDS011;46545;38.014;-7.874;2023-03-12T10:30:19;1.50;;;1.40;;
60704;SDS011;46545;38.014;-7.874;2023-03-12T10:32:29;3.03;;;1.38;;
60704;SDS011;46545;38.014;-7.874;2023-03-12T10:36:39;1.88;;;1.13;;
60704;SDS011;46545;38.014;-7.874;2023-03-12T10:38:40;3.40;;;1.60;;
60704;SDS011;46545;38.014;-7.874;2023-03-12T10:40:41;5.00;;;1.33;;
60704;SDS011;46545;38.014;-7.874;2023-03-12T10:42:41;3.17;;;1.33;;
60704;SDS011;46545;38.014;-7.874;2023-03-12T10:44:42;3.50;;;1.13;;
60704;SDS011;46545;38.014;-7.874;2023-03-12T10:48:43;3.70;;;1.63;;
60704;SDS011;46545;38.014;-7.874;2023-03-12T10:50:43;2.25;;;1.92;;
60704;SDS011;46545;38.014;-7.874;2023-03-12T10:57:18;2.85;;;1.10;;
60704;SDS011;46545;38.014;-7.874;2023-03-12T10:59:20;4.85;;;1.00;;
60704;SDS011;46545;38.014;-7.874;2023-03-12T11:01:22;2.78;;;1.30;;
60704;SDS011;46545;38.014;-7.874;2023-03-12T11:03:23;4.88;;;1.05;;
60704;SDS011;46545;38.014;-7.874;2023-03-12T11:05:26;3.90;;;1.30;;
60704;SDS011;46545;38.014;-7.874;2023-03-12T11:07:31;7.13;;;0.98;;
60704;SDS011;46545;38.014;-7.874;2023-03-12T11:09:32;3.30;;;1.20;;
60704;SDS011;46545;38.014;-7.874;2023-03-12T11:11:33;2.78;;;1.52;;
60704;SDS011;46545;38.014;-7.874;2023-03-12T11:13:35;2.45;;;1.30;;
60704;SDS011;46545;38.014;-7.874;2023-03-12T11:15:37;3.88;;;1.40;;
60704;SDS011;46545;38.014;-7.874;2023-03-12T11:17:38;2.95;;;2.30;;
60704;SDS011;46545;38.014;-7.874;2023-03-12T11:19:38;3.17;;;1.40;;
60704;SDS011;46545;38.014;-7.874;2023-03-12T11:21:39;6.05;;;1.50;;
60704;SDS011;46545;38.014;-7.874;2023-03-12T11:25:57;1.80;;;1.25;;
60704;SDS011;46545;38.014;-7.874;2023-03-12T11:27:59;3.10;;;1.55;;
60704;SDS011;46545;38.014;-7.874;2023-03-12T11:30:00;1.67;;;1.20;;
60704;SDS011;46545;38.014;-7.874;2023-03-12T11:32:05;5.13;;;1.40;;
60704;SDS011;46545;38.014;-7.874;2023-03-12T11:34:13;3.65;;;1.40;;
60704;SDS011;46545;38.014;-7.874;2023-03-12T11:36:19;3.00;;;1.00;;
60704;SDS011;46545;38.014;-7.874;2023-03-12T11:55:50;3.15;;;1.60;;
60704;SDS011;46545;38.014;-7.874;2023-03-12T11:58:04;1.50;;;1.15;;
60704;SDS011;46545;38.014;-7.874;2023-03-12T12:00:13;5.93;;;1.30;;
60704;SDS011;46545;38.014;-7.874;2023-03-12T12:02:19;1.70;;;1.17;;
60704;SDS011;46545;38.014;-7.874;2023-03-12T12:11:23;6.20;;;1.60;;
60704;SDS011;46545;38.014;-7.874;2023-03-12T12:13:40;4.10;;;1.30;;
60704;SDS011;46545;38.014;-7.874;2023-03-12T12:26:32;3.20;;;1.70;;
60704;SDS011;46545;38.014;-7.874;2023-03-12T12:39:47;1.63;;;1.50;;
60704;SDS011;46545;38.014;-7.874;2023-03-12T12:41:50;4.28;;;1.90;;
60704;SDS011;46545;38.014;-7.874;2023-03-12T12:43:53;3.83;;;1.90;;
60704;SDS011;46545;38.014;-7.874;2023-03-12T12:46:01;3.58;;;2.05;;
60704;SDS011;46545;38.014;-7.874;2023-03-12T12:48:07;3.35;;;1.80;;
60704;SDS011;46545;38.014;-7.874;2023-03-12T12:50:16;6.00;;;2.45;;
60704;SDS011;46545;38.014;-7.874;2023-03-12T12:52:17;2.67;;;2.08;;
60704;SDS011;46545;38.014;-7.874;2023-03-12T12:54:35;3.67;;;2.30;;
60704;SDS011;46545;38.014;-7.874;2023-03-12T13:00:53;5.13;;;2.20;;
60704;SDS011;46545;38.014;-7.874;2023-03-12T13:02:55;3.97;;;2.47;;
60704;SDS011;46545;38.014;-7.874;2023-03-12T13:04:57;5.93;;;2.42;;
60704;SDS011;46545;38.014;-7.874;2023-03-12T13:09:14;5.03;;;2.45;;
60704;SDS011;46545;38.014;-7.874;2023-03-12T13:13:17;3.53;;;1.73;;
60704;SDS011;46545;38.014;-7.874;2023-03-12T13:19:28;4.35;;;1.75;;
60704;SDS011;46545;38.014;-7.874;2023-03-12T13:23:31;3.83;;;1.77;;
60704;SDS011;46545;38.014;-7.874;2023-03-12T13:28:00;4.10;;;1.65;;
60704;SDS011;46545;38.014;-7.874;2023-03-12T13:34:44;4.03;;;1.58;;
60704;SDS011;46545;38.014;-7.874;2023-03-12T13:36:46;2.65;;;1.40;;